sensor_id;sensor_type;location;lat;lon;timestamp;P1;durP1;ratioP1;P2;durP2;ratioP2
42742;SDS011;28397;44.552;-0.848;2023-03-08T00:02:25;15.82;;;14.35;;
42742;SDS011;28397;44.552;-0.848;2023-03-08T00:04:53;15.70;;;14.30;;
42742;SDS011;28397;44.552;-0.848;2023-03-08T00:07:19;16.48;;;14.98;;
42742;SDS011;28397;44.552;-0.848;2023-03-08T00:09:45;16.10;;;14.60;;
42742;SDS011;28397;44.552;-0.848;2023-03-08T00:12:11;17.35;;;15.77;;
42742;SDS011;28397;44.552;-0.848;2023-03-08T00:14:37;17.75;;;16.05;;
42742;SDS011;28397;44.552;-0.848;2023-03-08T00:17:02;17.30;;;15.70;;
42742;SDS011;28397;44.552;-0.848;2023-03-08T00:19:29;15.38;;;13.98;;
42742;SDS011;28397;44.552;-0.848;2023-03-08T00:21:55;15.90;;;14.10;;
42742;SDS011;28397;44.552;-0.848;2023-03-08T00:24:21;14.63;;;13.25;;
42742;SDS011;28397;44.552;-0.848;2023-03-08T00:26:47;14.38;;;13.00;;
42742;SDS011;28397;44.552;-0.848;2023-03-08T00:29:12;13.85;;;12.55;;
42742;SDS011;28397;44.552;-0.848;2023-03-08T00:31:38;15.63;;;14.07;;
42742;SDS011;28397;44.552;-0.848;2023-03-08T00:34:04;13.90;;;12.52;;
42742;SDS011;28397;44.552;-0.848;2023-03-08T00:36:29;14.52;;;13.15;;
42742;SDS011;28397;44.552;-0.848;2023-03-08T00:38:55;14.65;;;13.30;;
42742;SDS011;28397;44.552;-0.848;2023-03-08T00:41:21;13.38;;;12.18;;
42742;SDS011;28397;44.552;-0.848;2023-03-08T00:43:48;12.88;;;11.77;;
42742;SDS011;28397;44.552;-0.848;2023-03-08T00:46:13;12.65;;;11.45;;
42742;SDS011;28397;44.552;-0.848;2023-03-08T00:48:40;12.27;;;11.00;;
42742;SDS011;28397;44.552;-0.848;2023-03-08T00:51:06;11.55;;;10.35;;
42742;SDS011;28397;44.552;-0.848;2023-03-08T00:53:32;11.77;;;10.63;;
42742;SDS011;28397;44.552;-0.848;2023-03-08T00:55:58;11.90;;;10.70;;
42742;SDS011;28397;44.552;-0.848;2023-03-08T00:58:25;12.00;;;10.73;;
42742;SDS011;28397;44.552;-0.848;2023-03-08T01:00:53;11.27;;;10.25;;
42742;SDS011;28397;44.552;-0.848;2023-03-08T01:03:19;12.15;;;9.52;;
42742;SDS011;28397;44.552;-0.848;2023-03-08T01:05:49;10.32;;;9.27;;
42742;SDS011;28397;44.552;-0.848;2023-03-08T01:08:17;9.23;;;8.23;;
42742;SDS011;28397;44.552;-0.848;2023-03-08T01:10:53;9.52;;;8.50;;
42742;SDS011;28397;44.552;-0.848;2023-03-08T01:13:28;10.20;;;8.82;;
42742;SDS011;28397;44.552;-0.848;2023-03-08T01:15:55;9.02;;;8.13;;
42742;SDS011;28397;44.552;-0.848;2023-03-08T01:18:21;8.07;;;7.28;;
42742;SDS011;28397;44.552;-0.848;2023-03-08T01:21:00;8.52;;;7.45;;
42742;SDS011;28397;44.552;-0.848;2023-03-08T01:23:27;8.88;;;7.10;;
42742;SDS011;28397;44.552;-0.848;2023-03-08T01:26:00;8.50;;;7.47;;
42742;SDS011;28397;44.552;-0.848;2023-03-08T01:28:27;7.60;;;6.78;;
42742;SDS011;28397;44.552;-0.848;2023-03-08T01:30:53;7.95;;;7.03;;
42742;SDS011;28397;44.552;-0.848;2023-03-08T01:33:25;8.13;;;7.07;;
42742;SDS011;28397;44.552;-0.848;2023-03-08T01:35:51;8.10;;;7.10;;
42742;SDS011;28397;44.552;-0.848;2023-03-08T01:38:17;8.88;;;6.60;;
42742;SDS011;28397;44.552;-0.848;2023-03-08T01:40:42;6.85;;;6.15;;
42742;SDS011;28397;44.552;-0.848;2023-03-08T01:43:28;8.77;;;6.22;;
42742;SDS011;28397;44.552;-0.848;2023-03-08T01:54:22;8.63;;;5.68;;
42742;SDS011;28397;44.552;-0.848;2023-03-08T01:57:02;10.68;;;5.60;;
42742;SDS011;28397;44.552;-0.848;2023-03-08T01:59:32;8.30;;;5.80;;
42742;SDS011;28397;44.552;-0.848;2023-03-08T02:01:59;5.72;;;5.20;;
42742;SDS011;28397;44.552;-0.848;2023-03-08T02:04:26;5.55;;;5.03;;
42742;SDS011;28397;44.552;-0.848;2023-03-08T02:06:52;6.30;;;5.00;;
42742;SDS011;28397;44.552;-0.848;2023-03-08T02:09:18;7.80;;;5.07;;
42742;SDS011;28397;44.552;-0.848;2023-03-08T02:11:44;7.15;;;4.95;;
42742;SDS011;28397;44.552;-0.848;2023-03-08T02:14:11;5.05;;;4.00;;
42742;SDS011;28397;44.552;-0.848;2023-03-08T02:16:37;6.20;;;4.43;;
42742;SDS011;28397;44.552;-0.848;2023-03-08T02:19:04;5.72;;;4.63;;
42742;SDS011;28397;44.552;-0.848;2023-03-08T02:21:35;6.88;;;4.30;;
42742;SDS011;28397;44.552;-0.848;2023-03-08T02:24:04;7.38;;;4.30;;
42742;SDS011;28397;44.552;-0.848;2023-03-08T02:26:31;7.10;;;4.40;;
42742;SDS011;28397;44.552;-0.848;2023-03-08T02:28:59;5.25;;;3.80;;
42742;SDS011;28397;44.552;-0.848;2023-03-08T02:31:25;6.18;;;4.20;;
42742;SDS011;28397;44.552;-0.848;2023-03-08T02:33:50;5.43;;;3.50;;
42742;SDS011;28397;44.552;-0.848;2023-03-08T02:36:16;7.57;;;4.13;;
42742;SDS011;28397;44.552;-0.848;2023-03-08T02:38:42;6.35;;;4.15;;
42742;SDS011;28397;44.552;-0.848;2023-03-08T02:41:07;5.32;;;3.70;;
42742;SDS011;28397;44.552;-0.848;2023-03-08T02:43:33;5.70;;;3.75;;
42742;SDS011;28397;44.552;-0.848;2023-03-08T02:45:59;9.55;;;5.30;;
42742;SDS011;28397;44.552;-0.848;2023-03-08T02:48:25;5.25;;;3.67;;
42742;SDS011;28397;44.552;-0.848;2023-03-08T02:50:50;4.82;;;3.28;;
42742;SDS011;28397;44.552;-0.848;2023-03-08T02:53:16;5.32;;;3.50;;
42742;SDS011;28397;44.552;-0.848;2023-03-08T02:55:42;3.70;;;3.28;;
42742;SDS011;28397;44.552;-0.848;2023-03-08T02:58:08;4.43;;;3.75;;
42742;SDS011;28397;44.552;-0.848;2023-03-08T03:00:34;6.53;;;3.67;;
42742;SDS011;28397;44.552;-0.848;2023-03-08T03:03:01;5.32;;;3.67;;
42742;SDS011;28397;44.552;-0.848;2023-03-08T03:05:27;4.45;;;3.67;;
42742;SDS011;28397;44.552;-0.848;2023-03-08T03:07:52;4.32;;;3.17;;
42742;SDS011;28397;44.552;-0.848;2023-03-08T03:10:19;4.55;;;3.30;;
42742;SDS011;28397;44.552;-0.848;2023-03-08T03:12:45;5.28;;;3.70;;
42742;SDS011;28397;44.552;-0.848;2023-03-08T03:15:11;5.60;;;3.80;;
42742;SDS011;28397;44.552;-0.848;2023-03-08T03:17:37;6.10;;;3.83;;
42742;SDS011;28397;44.552;-0.848;2023-03-08T03:20:04;7.78;;;5.32;;
42742;SDS011;28397;44.552;-0.848;2023-03-08T03:22:33;7.40;;;5.30;;
42742;SDS011;28397;44.552;-0.848;2023-03-08T03:24:59;8.43;;;6.18;;
42742;SDS011;28397;44.552;-0.848;2023-03-08T03:27:24;9.75;;;4.95;;
42742;SDS011;28397;44.552;-0.848;2023-03-08T03:29:50;6.22;;;4.55;;
42742;SDS011;28397;44.552;-0.848;2023-03-08T03:32:16;5.20;;;3.88;;
42742;SDS011;28397;44.552;-0.848;2023-03-08T03:34:42;6.70;;;4.60;;
42742;SDS011;28397;44.552;-0.848;2023-03-08T03:37:08;5.80;;;4.28;;
42742;SDS011;28397;44.552;-0.848;2023-03-08T03:39:37;5.13;;;3.45;;
42742;SDS011;28397;44.552;-0.848;2023-03-08T03:42:04;5.07;;;3.42;;
42742;SDS011;28397;44.552;-0.848;2023-03-08T03:44:30;5.22;;;3.70;;
42742;SDS011;28397;44.552;-0.848;2023-03-08T03:46:56;4.47;;;3.30;;
42742;SDS011;28397;44.552;-0.848;2023-03-08T03:49:22;6.53;;;3.83;;
42742;SDS011;28397;44.552;-0.848;2023-03-08T03:51:48;6.07;;;3.67;;
42742;SDS011;28397;44.552;-0.848;2023-03-08T03:54:13;5.93;;;3.85;;
42742;SDS011;28397;44.552;-0.848;2023-03-08T03:56:39;6.47;;;4.40;;
42742;SDS011;28397;44.552;-0.848;2023-03-08T03:59:05;4.68;;;3.78;;
42742;SDS011;28397;44.552;-0.848;2023-03-08T04:01:31;6.13;;;4.10;;
42742;SDS011;28397;44.552;-0.848;2023-03-08T04:03:57;5.95;;;3.70;;
42742;SDS011;28397;44.552;-0.848;2023-03-08T04:06:24;5.60;;;3.83;;
42742;SDS011;28397;44.552;-0.848;2023-03-08T04:08:57;5.70;;;3.58;;
42742;SDS011;28397;44.552;-0.848;2023-03-08T04:11:26;6.20;;;3.70;;
42742;SDS011;28397;44.552;-0.848;2023-03-08T04:13:53;6.57;;;4.03;;
42742;SDS011;28397;44.552;-0.848;2023-03-08T04:16:21;6.72;;;3.78;;
42742;SDS011;28397;44.552;-0.848;2023-03-08T04:18:51;6.13;;;3.90;;
42742;SDS011;28397;44.552;-0.848;2023-03-08T04:21:19;7.05;;;4.43;;
42742;SDS011;28397;44.552;-0.848;2023-03-08T04:23:45;8.38;;;5.07;;
42742;SDS011;28397;44.552;-0.848;2023-03-08T04:26:10;7.65;;;5.07;;
42742;SDS011;28397;44.552;-0.848;2023-03-08T04:28:37;7.50;;;4.47;;
42742;SDS011;28397;44.552;-0.848;2023-03-08T04:31:14;7.45;;;3.90;;
42742;SDS011;28397;44.552;-0.848;2023-03-08T04:33:40;5.65;;;3.88;;
42742;SDS011;28397;44.552;-0.848;2023-03-08T04:36:06;6.13;;;4.15;;
42742;SDS011;28397;44.552;-0.848;2023-03-08T04:38:32;8.63;;;6.88;;
42742;SDS011;28397;44.552;-0.848;2023-03-08T04:40:58;7.07;;;4.47;;
42742;SDS011;28397;44.552;-0.848;2023-03-08T04:43:35;9.18;;;5.97;;
42742;SDS011;28397;44.552;-0.848;2023-03-08T04:46:11;7.60;;;5.20;;
42742;SDS011;28397;44.552;-0.848;2023-03-08T04:48:38;8.50;;;5.35;;
42742;SDS011;28397;44.552;-0.848;2023-03-08T04:51:05;8.80;;;5.85;;
42742;SDS011;28397;44.552;-0.848;2023-03-08T04:53:32;8.80;;;5.53;;
42742;SDS011;28397;44.552;-0.848;2023-03-08T04:55:58;8.57;;;5.68;;
42742;SDS011;28397;44.552;-0.848;2023-03-08T04:58:24;7.40;;;5.05;;
42742;SDS011;28397;44.552;-0.848;2023-03-08T05:00:51;7.50;;;5.47;;
42742;SDS011;28397;44.552;-0.848;2023-03-08T05:03:17;5.80;;;4.85;;
42742;SDS011;28397;44.552;-0.848;2023-03-08T05:05:44;7.40;;;4.50;;
42742;SDS011;28397;44.552;-0.848;2023-03-08T05:08:11;6.45;;;4.18;;
42742;SDS011;28397;44.552;-0.848;2023-03-08T05:10:37;7.07;;;4.30;;
42742;SDS011;28397;44.552;-0.848;2023-03-08T05:13:03;6.43;;;4.10;;
42742;SDS011;28397;44.552;-0.848;2023-03-08T05:15:28;6.60;;;3.90;;
42742;SDS011;28397;44.552;-0.848;2023-03-08T05:17:54;5.88;;;4.57;;
42742;SDS011;28397;44.552;-0.848;2023-03-08T05:20:20;6.72;;;4.18;;
42742;SDS011;28397;44.552;-0.848;2023-03-08T05:22:45;9.13;;;4.72;;
42742;SDS011;28397;44.552;-0.848;2023-03-08T05:25:11;8.07;;;5.10;;
42742;SDS011;28397;44.552;-0.848;2023-03-08T05:27:38;7.60;;;5.38;;
42742;SDS011;28397;44.552;-0.848;2023-03-08T05:30:04;6.40;;;4.32;;
42742;SDS011;28397;44.552;-0.848;2023-03-08T05:32:30;8.30;;;5.05;;
42742;SDS011;28397;44.552;-0.848;2023-03-08T05:34:56;8.57;;;4.95;;
42742;SDS011;28397;44.552;-0.848;2023-03-08T05:37:21;6.97;;;4.57;;
42742;SDS011;28397;44.552;-0.848;2023-03-08T05:39:50;6.30;;;4.38;;
42742;SDS011;28397;44.552;-0.848;2023-03-08T05:42:16;7.43;;;5.75;;
42742;SDS011;28397;44.552;-0.848;2023-03-08T05:44:42;7.63;;;4.63;;
42742;SDS011;28397;44.552;-0.848;2023-03-08T05:47:07;8.00;;;5.07;;
42742;SDS011;28397;44.552;-0.848;2023-03-08T05:49:33;12.27;;;11.05;;
42742;SDS011;28397;44.552;-0.848;2023-03-08T05:51:59;5.95;;;4.43;;
42742;SDS011;28397;44.552;-0.848;2023-03-08T05:54:25;8.43;;;6.00;;
42742;SDS011;28397;44.552;-0.848;2023-03-08T05:56:50;7.60;;;5.22;;
42742;SDS011;28397;44.552;-0.848;2023-03-08T05:59:16;5.40;;;4.30;;
42742;SDS011;28397;44.552;-0.848;2023-03-08T06:01:42;8.82;;;5.57;;
42742;SDS011;28397;44.552;-0.848;2023-03-08T06:04:08;7.80;;;5.10;;
42742;SDS011;28397;44.552;-0.848;2023-03-08T06:06:33;9.50;;;6.10;;
42742;SDS011;28397;44.552;-0.848;2023-03-08T06:08:59;10.20;;;5.85;;
42742;SDS011;28397;44.552;-0.848;2023-03-08T06:11:25;9.70;;;7.00;;
42742;SDS011;28397;44.552;-0.848;2023-03-08T06:13:50;12.90;;;10.98;;
42742;SDS011;28397;44.552;-0.848;2023-03-08T06:16:16;9.45;;;8.55;;
42742;SDS011;28397;44.552;-0.848;2023-03-08T06:18:42;10.77;;;9.63;;
42742;SDS011;28397;44.552;-0.848;2023-03-08T06:21:15;10.93;;;8.63;;
42742;SDS011;28397;44.552;-0.848;2023-03-08T06:23:42;9.75;;;7.80;;
42742;SDS011;28397;44.552;-0.848;2023-03-08T06:26:09;7.88;;;6.20;;
42742;SDS011;28397;44.552;-0.848;2023-03-08T06:28:35;8.05;;;6.97;;
42742;SDS011;28397;44.552;-0.848;2023-03-08T06:31:04;7.32;;;5.38;;
42742;SDS011;28397;44.552;-0.848;2023-03-08T06:33:30;7.50;;;6.25;;
42742;SDS011;28397;44.552;-0.848;2023-03-08T06:36:07;11.73;;;7.80;;
42742;SDS011;28397;44.552;-0.848;2023-03-08T06:38:36;11.93;;;9.75;;
42742;SDS011;28397;44.552;-0.848;2023-03-08T06:41:03;9.20;;;6.63;;
42742;SDS011;28397;44.552;-0.848;2023-03-08T06:43:30;10.82;;;6.22;;
42742;SDS011;28397;44.552;-0.848;2023-03-08T06:45:56;11.10;;;7.90;;
42742;SDS011;28397;44.552;-0.848;2023-03-08T06:48:22;11.32;;;6.93;;
42742;SDS011;28397;44.552;-0.848;2023-03-08T06:50:48;9.00;;;5.18;;
42742;SDS011;28397;44.552;-0.848;2023-03-08T06:53:15;8.95;;;8.00;;
42742;SDS011;28397;44.552;-0.848;2023-03-08T06:55:41;8.63;;;6.38;;
42742;SDS011;28397;44.552;-0.848;2023-03-08T06:58:07;9.63;;;6.40;;
42742;SDS011;28397;44.552;-0.848;2023-03-08T07:00:33;9.27;;;6.50;;
42742;SDS011;28397;44.552;-0.848;2023-03-08T07:02:59;10.85;;;6.38;;
42742;SDS011;28397;44.552;-0.848;2023-03-08T07:05:25;8.48;;;5.03;;
42742;SDS011;28397;44.552;-0.848;2023-03-08T07:07:51;6.60;;;5.32;;
42742;SDS011;28397;44.552;-0.848;2023-03-08T07:10:18;7.93;;;4.75;;
42742;SDS011;28397;44.552;-0.848;2023-03-08T07:12:45;7.63;;;6.75;;
42742;SDS011;28397;44.552;-0.848;2023-03-08T07:15:13;8.15;;;5.07;;
42742;SDS011;28397;44.552;-0.848;2023-03-08T07:17:41;6.05;;;4.93;;
42742;SDS011;28397;44.552;-0.848;2023-03-08T07:20:08;6.78;;;4.82;;
42742;SDS011;28397;44.552;-0.848;2023-03-08T07:22:34;7.22;;;4.88;;
42742;SDS011;28397;44.552;-0.848;2023-03-08T07:25:00;10.63;;;7.88;;
42742;SDS011;28397;44.552;-0.848;2023-03-08T07:27:26;9.90;;;7.25;;
42742;SDS011;28397;44.552;-0.848;2023-03-08T07:29:51;6.25;;;4.97;;
42742;SDS011;28397;44.552;-0.848;2023-03-08T07:32:17;8.82;;;6.43;;
42742;SDS011;28397;44.552;-0.848;2023-03-08T07:34:43;12.93;;;10.75;;
42742;SDS011;28397;44.552;-0.848;2023-03-08T07:37:12;14.88;;;10.55;;
42742;SDS011;28397;44.552;-0.848;2023-03-08T07:39:39;12.35;;;8.52;;
42742;SDS011;28397;44.552;-0.848;2023-03-08T07:42:05;18.92;;;12.38;;
42742;SDS011;28397;44.552;-0.848;2023-03-08T07:44:31;10.38;;;7.88;;
42742;SDS011;28397;44.552;-0.848;2023-03-08T07:46:57;12.25;;;10.15;;
42742;SDS011;28397;44.552;-0.848;2023-03-08T07:49:22;10.38;;;7.95;;
42742;SDS011;28397;44.552;-0.848;2023-03-08T07:51:48;11.75;;;6.60;;
42742;SDS011;28397;44.552;-0.848;2023-03-08T07:54:17;13.43;;;8.65;;
42742;SDS011;28397;44.552;-0.848;2023-03-08T07:56:43;9.77;;;7.80;;
42742;SDS011;28397;44.552;-0.848;2023-03-08T07:59:08;23.35;;;8.25;;
42742;SDS011;28397;44.552;-0.848;2023-03-08T08:01:34;13.93;;;7.45;;
42742;SDS011;28397;44.552;-0.848;2023-03-08T08:04:00;9.05;;;6.75;;
42742;SDS011;28397;44.552;-0.848;2023-03-08T08:06:26;11.50;;;6.43;;
42742;SDS011;28397;44.552;-0.848;2023-03-08T08:08:53;8.88;;;6.78;;
42742;SDS011;28397;44.552;-0.848;2023-03-08T08:11:20;9.82;;;7.15;;
42742;SDS011;28397;44.552;-0.848;2023-03-08T08:13:46;13.80;;;9.43;;
42742;SDS011;28397;44.552;-0.848;2023-03-08T08:16:13;8.93;;;7.00;;
42742;SDS011;28397;44.552;-0.848;2023-03-08T08:18:39;10.18;;;6.47;;
42742;SDS011;28397;44.552;-0.848;2023-03-08T08:21:09;9.98;;;7.50;;
42742;SDS011;28397;44.552;-0.848;2023-03-08T08:23:37;11.52;;;6.72;;
42742;SDS011;28397;44.552;-0.848;2023-03-08T08:26:04;10.60;;;5.78;;
42742;SDS011;28397;44.552;-0.848;2023-03-08T08:28:35;8.60;;;5.80;;
42742;SDS011;28397;44.552;-0.848;2023-03-08T08:31:03;8.80;;;5.30;;
42742;SDS011;28397;44.552;-0.848;2023-03-08T08:33:31;8.35;;;5.05;;
42742;SDS011;28397;44.552;-0.848;2023-03-08T08:35:57;7.45;;;5.45;;
42742;SDS011;28397;44.552;-0.848;2023-03-08T08:38:23;10.63;;;6.55;;
42742;SDS011;28397;44.552;-0.848;2023-03-08T08:40:50;9.27;;;6.30;;
42742;SDS011;28397;44.552;-0.848;2023-03-08T08:43:16;8.13;;;6.50;;
42742;SDS011;28397;44.552;-0.848;2023-03-08T08:45:43;8.10;;;6.03;;
42742;SDS011;28397;44.552;-0.848;2023-03-08T08:48:10;7.55;;;5.60;;
42742;SDS011;28397;44.552;-0.848;2023-03-08T08:50:39;6.97;;;5.22;;
42742;SDS011;28397;44.552;-0.848;2023-03-08T08:53:06;8.02;;;5.43;;
42742;SDS011;28397;44.552;-0.848;2023-03-08T08:55:34;9.15;;;4.80;;
42742;SDS011;28397;44.552;-0.848;2023-03-08T08:58:00;7.22;;;4.38;;
42742;SDS011;28397;44.552;-0.848;2023-03-08T09:00:27;6.95;;;4.60;;
42742;SDS011;28397;44.552;-0.848;2023-03-08T09:02:53;8.02;;;4.43;;
42742;SDS011;28397;44.552;-0.848;2023-03-08T09:05:19;6.68;;;4.70;;
42742;SDS011;28397;44.552;-0.848;2023-03-08T09:07:45;5.05;;;4.18;;
42742;SDS011;28397;44.552;-0.848;2023-03-08T09:10:11;6.22;;;5.20;;
42742;SDS011;28397;44.552;-0.848;2023-03-08T09:12:36;6.25;;;4.10;;
42742;SDS011;28397;44.552;-0.848;2023-03-08T09:15:03;7.10;;;4.82;;
42742;SDS011;28397;44.552;-0.848;2023-03-08T09:17:30;7.65;;;4.38;;
42742;SDS011;28397;44.552;-0.848;2023-03-08T09:19:57;7.45;;;4.30;;
42742;SDS011;28397;44.552;-0.848;2023-03-08T09:22:23;8.00;;;5.18;;
42742;SDS011;28397;44.552;-0.848;2023-03-08T09:24:51;8.52;;;4.20;;
42742;SDS011;28397;44.552;-0.848;2023-03-08T09:27:16;8.63;;;5.60;;
42742;SDS011;28397;44.552;-0.848;2023-03-08T09:29:42;16.80;;;11.88;;
42742;SDS011;28397;44.552;-0.848;2023-03-08T09:32:08;13.40;;;11.65;;
42742;SDS011;28397;44.552;-0.848;2023-03-08T09:34:34;12.75;;;9.98;;
42742;SDS011;28397;44.552;-0.848;2023-03-08T09:37:00;8.93;;;6.72;;
42742;SDS011;28397;44.552;-0.848;2023-03-08T09:39:26;18.45;;;14.25;;
42742;SDS011;28397;44.552;-0.848;2023-03-08T09:41:56;9.40;;;6.20;;
42742;SDS011;28397;44.552;-0.848;2023-03-08T09:44:29;16.27;;;10.63;;
42742;SDS011;28397;44.552;-0.848;2023-03-08T09:47:59;17.45;;;14.45;;
42742;SDS011;28397;44.552;-0.848;2023-03-08T09:49:57;10.90;;;8.32;;
42742;SDS011;28397;44.552;-0.848;2023-03-08T09:52:37;9.60;;;8.45;;
42742;SDS011;28397;44.552;-0.848;2023-03-08T09:55:16;5.55;;;3.88;;
42742;SDS011;28397;44.552;-0.848;2023-03-08T09:57:52;12.20;;;9.20;;
42742;SDS011;28397;44.552;-0.848;2023-03-08T10:00:30;7.47;;;3.95;;
42742;SDS011;28397;44.552;-0.848;2023-03-08T10:08:36;5.27;;;2.90;;
42742;SDS011;28397;44.552;-0.848;2023-03-08T10:11:18;4.13;;;2.30;;
42742;SDS011;28397;44.552;-0.848;2023-03-08T10:13:53;4.75;;;2.60;;
42742;SDS011;28397;44.552;-0.848;2023-03-08T10:16:23;5.13;;;2.65;;
42742;SDS011;28397;44.552;-0.848;2023-03-08T10:21:39;6.05;;;3.55;;
42742;SDS011;28397;44.552;-0.848;2023-03-08T10:26:59;5.13;;;2.95;;
42742;SDS011;28397;44.552;-0.848;2023-03-08T10:29:51;3.97;;;2.72;;
42742;SDS011;28397;44.552;-0.848;2023-03-08T10:32:19;4.05;;;1.77;;
42742;SDS011;28397;44.552;-0.848;2023-03-08T10:34:46;4.32;;;2.05;;
42742;SDS011;28397;44.552;-0.848;2023-03-08T10:37:12;7.57;;;2.20;;
42742;SDS011;28397;44.552;-0.848;2023-03-08T10:39:51;8.98;;;3.17;;
42742;SDS011;28397;44.552;-0.848;2023-03-08T10:42:22;4.68;;;2.00;;
42742;SDS011;28397;44.552;-0.848;2023-03-08T10:47:26;4.68;;;2.38;;
42742;SDS011;28397;44.552;-0.848;2023-03-08T10:53:08;3.30;;;1.70;;
42742;SDS011;28397;44.552;-0.848;2023-03-08T10:55:52;3.53;;;2.05;;
42742;SDS011;28397;44.552;-0.848;2023-03-08T10:58:31;3.35;;;2.17;;
42742;SDS011;28397;44.552;-0.848;2023-03-08T11:01:05;5.13;;;2.50;;
42742;SDS011;28397;44.552;-0.848;2023-03-08T11:03:56;4.82;;;1.58;;
42742;SDS011;28397;44.552;-0.848;2023-03-08T11:06:41;7.15;;;2.63;;
42742;SDS011;28397;44.552;-0.848;2023-03-08T11:12:08;9.27;;;3.33;;
42742;SDS011;28397;44.552;-0.848;2023-03-08T11:14:50;8.70;;;4.60;;
42742;SDS011;28397;44.552;-0.848;2023-03-08T11:17:27;4.57;;;2.42;;
42742;SDS011;28397;44.552;-0.848;2023-03-08T11:33:06;8.70;;;4.13;;
42742;SDS011;28397;44.552;-0.848;2023-03-08T11:46:59;14.73;;;3.67;;
42742;SDS011;28397;44.552;-0.848;2023-03-08T11:52:48;15.15;;;3.90;;
42742;SDS011;28397;44.552;-0.848;2023-03-08T12:00:42;16.92;;;4.53;;
42742;SDS011;28397;44.552;-0.848;2023-03-08T12:05:45;13.98;;;3.40;;
42742;SDS011;28397;44.552;-0.848;2023-03-08T12:08:24;14.30;;;4.70;;
42742;SDS011;28397;44.552;-0.848;2023-03-08T12:10:54;16.20;;;5.20;;
42742;SDS011;28397;44.552;-0.848;2023-03-08T12:13:24;14.13;;;3.85;;
42742;SDS011;28397;44.552;-0.848;2023-03-08T12:18:47;15.90;;;3.70;;
42742;SDS011;28397;44.552;-0.848;2023-03-08T12:22:02;14.27;;;3.58;;
42742;SDS011;28397;44.552;-0.848;2023-03-08T12:24:14;16.05;;;3.88;;
42742;SDS011;28397;44.552;-0.848;2023-03-08T12:26:54;15.63;;;4.03;;
42742;SDS011;28397;44.552;-0.848;2023-03-08T12:32:40;15.63;;;4.68;;
42742;SDS011;28397;44.552;-0.848;2023-03-08T12:38:04;17.55;;;6.90;;
42742;SDS011;28397;44.552;-0.848;2023-03-08T12:40:43;16.23;;;4.57;;
42742;SDS011;28397;44.552;-0.848;2023-03-08T12:45:46;14.23;;;5.15;;
42742;SDS011;28397;44.552;-0.848;2023-03-08T12:53:45;23.35;;;12.93;;
42742;SDS011;28397;44.552;-0.848;2023-03-08T12:56:36;17.42;;;4.78;;
42742;SDS011;28397;44.552;-0.848;2023-03-08T12:59:33;45.47;;;30.48;;
42742;SDS011;28397;44.552;-0.848;2023-03-08T13:02:22;66.53;;;46.20;;
42742;SDS011;28397;44.552;-0.848;2023-03-08T13:04:48;48.88;;;32.28;;
42742;SDS011;28397;44.552;-0.848;2023-03-08T13:09:58;16.20;;;6.60;;
42742;SDS011;28397;44.552;-0.848;2023-03-08T13:12:36;25.60;;;13.10;;
42742;SDS011;28397;44.552;-0.848;2023-03-08T13:20:23;17.35;;;9.68;;
42742;SDS011;28397;44.552;-0.848;2023-03-08T13:28:37;23.63;;;10.82;;
42742;SDS011;28397;44.552;-0.848;2023-03-08T13:31:12;16.70;;;7.18;;
42742;SDS011;28397;44.552;-0.848;2023-03-08T13:33:52;25.77;;;15.68;;
42742;SDS011;28397;44.552;-0.848;2023-03-08T13:36:20;17.80;;;9.05;;
42742;SDS011;28397;44.552;-0.848;2023-03-08T13:41:39;15.65;;;7.57;;
42742;SDS011;28397;44.552;-0.848;2023-03-08T13:44:14;12.80;;;5.35;;
42742;SDS011;28397;44.552;-0.848;2023-03-08T13:46:42;14.50;;;6.63;;
42742;SDS011;28397;44.552;-0.848;2023-03-08T13:49:12;17.10;;;9.85;;
42742;SDS011;28397;44.552;-0.848;2023-03-08T13:51:46;14.50;;;6.07;;
42742;SDS011;28397;44.552;-0.848;2023-03-08T13:54:33;15.15;;;6.47;;
42742;SDS011;28397;44.552;-0.848;2023-03-08T13:57:03;13.18;;;4.50;;
42742;SDS011;28397;44.552;-0.848;2023-03-08T13:59:31;9.65;;;4.97;;
42742;SDS011;28397;44.552;-0.848;2023-03-08T14:01:59;11.48;;;4.53;;
42742;SDS011;28397;44.552;-0.848;2023-03-08T14:04:26;13.25;;;4.35;;
42742;SDS011;28397;44.552;-0.848;2023-03-08T14:06:58;12.63;;;5.43;;
42742;SDS011;28397;44.552;-0.848;2023-03-08T14:09:25;11.55;;;4.82;;
42742;SDS011;28397;44.552;-0.848;2023-03-08T14:12:04;12.23;;;3.88;;
42742;SDS011;28397;44.552;-0.848;2023-03-08T14:14:35;12.88;;;5.03;;
42742;SDS011;28397;44.552;-0.848;2023-03-08T14:17:04;14.75;;;6.60;;
42742;SDS011;28397;44.552;-0.848;2023-03-08T14:19:34;22.52;;;12.85;;
42742;SDS011;28397;44.552;-0.848;2023-03-08T14:22:12;13.02;;;6.93;;
42742;SDS011;28397;44.552;-0.848;2023-03-08T14:24:40;14.63;;;10.27;;
42742;SDS011;28397;44.552;-0.848;2023-03-08T14:29:40;21.80;;;16.13;;
42742;SDS011;28397;44.552;-0.848;2023-03-08T14:39:44;33.83;;;21.80;;
42742;SDS011;28397;44.552;-0.848;2023-03-08T14:44:47;9.02;;;3.00;;
42742;SDS011;28397;44.552;-0.848;2023-03-08T14:47:28;10.80;;;2.97;;
42742;SDS011;28397;44.552;-0.848;2023-03-08T14:50:01;10.40;;;2.85;;
42742;SDS011;28397;44.552;-0.848;2023-03-08T14:52:30;7.27;;;2.77;;
42742;SDS011;28397;44.552;-0.848;2023-03-08T14:54:59;9.30;;;2.60;;
42742;SDS011;28397;44.552;-0.848;2023-03-08T14:57:26;7.10;;;2.60;;
42742;SDS011;28397;44.552;-0.848;2023-03-08T14:59:53;9.93;;;2.75;;
42742;SDS011;28397;44.552;-0.848;2023-03-08T15:02:38;7.20;;;2.65;;
42742;SDS011;28397;44.552;-0.848;2023-03-08T15:05:04;7.13;;;2.50;;
42742;SDS011;28397;44.552;-0.848;2023-03-08T15:07:33;7.22;;;2.25;;
42742;SDS011;28397;44.552;-0.848;2023-03-08T15:10:01;8.68;;;2.50;;
42742;SDS011;28397;44.552;-0.848;2023-03-08T15:12:29;8.65;;;2.78;;
42742;SDS011;28397;44.552;-0.848;2023-03-08T15:14:55;7.95;;;2.78;;
42742;SDS011;28397;44.552;-0.848;2023-03-08T15:17:21;5.05;;;2.10;;
42742;SDS011;28397;44.552;-0.848;2023-03-08T15:19:46;5.93;;;2.30;;
42742;SDS011;28397;44.552;-0.848;2023-03-08T15:22:12;4.97;;;1.90;;
42742;SDS011;28397;44.552;-0.848;2023-03-08T15:24:40;6.75;;;1.70;;
42742;SDS011;28397;44.552;-0.848;2023-03-08T15:27:08;2.92;;;1.70;;
42742;SDS011;28397;44.552;-0.848;2023-03-08T15:29:38;3.83;;;1.73;;
42742;SDS011;28397;44.552;-0.848;2023-03-08T15:32:04;4.53;;;1.92;;
42742;SDS011;28397;44.552;-0.848;2023-03-08T15:34:30;4.00;;;1.45;;
42742;SDS011;28397;44.552;-0.848;2023-03-08T15:36:55;2.92;;;1.63;;
42742;SDS011;28397;44.552;-0.848;2023-03-08T15:39:21;3.22;;;1.40;;
42742;SDS011;28397;44.552;-0.848;2023-03-08T15:41:47;5.28;;;4.32;;
42742;SDS011;28397;44.552;-0.848;2023-03-08T15:44:13;2.42;;;1.50;;
42742;SDS011;28397;44.552;-0.848;2023-03-08T15:46:39;6.22;;;1.80;;
42742;SDS011;28397;44.552;-0.848;2023-03-08T15:49:04;3.00;;;1.30;;
42742;SDS011;28397;44.552;-0.848;2023-03-08T15:51:31;3.92;;;2.15;;
42742;SDS011;28397;44.552;-0.848;2023-03-08T15:53:58;3.92;;;2.20;;
42742;SDS011;28397;44.552;-0.848;2023-03-08T15:56:24;5.00;;;3.10;;
42742;SDS011;28397;44.552;-0.848;2023-03-08T15:58:51;3.13;;;2.80;;
42742;SDS011;28397;44.552;-0.848;2023-03-08T16:01:17;3.83;;;3.10;;
42742;SDS011;28397;44.552;-0.848;2023-03-08T16:03:43;3.53;;;2.10;;
42742;SDS011;28397;44.552;-0.848;2023-03-08T16:06:09;3.92;;;3.50;;
42742;SDS011;28397;44.552;-0.848;2023-03-08T16:08:36;6.03;;;5.13;;
42742;SDS011;28397;44.552;-0.848;2023-03-08T16:11:09;3.85;;;3.08;;
42742;SDS011;28397;44.552;-0.848;2023-03-08T16:13:36;4.80;;;3.53;;
42742;SDS011;28397;44.552;-0.848;2023-03-08T16:16:02;2.97;;;2.10;;
42742;SDS011;28397;44.552;-0.848;2023-03-08T16:18:30;3.28;;;1.45;;
42742;SDS011;28397;44.552;-0.848;2023-03-08T16:20:57;3.33;;;2.65;;
42742;SDS011;28397;44.552;-0.848;2023-03-08T16:23:24;3.25;;;2.80;;
42742;SDS011;28397;44.552;-0.848;2023-03-08T16:25:57;4.28;;;2.65;;
42742;SDS011;28397;44.552;-0.848;2023-03-08T16:28:23;7.18;;;3.50;;